Time;durP1;ratioP1;P1;durP2;ratioP2;P2;SDS_P1;SDS_P2;PMS_P1;PMS_P2;Temp;Humidity;BMP_temperature;BMP_pressure;BME280_temperature;BME280_humidity;BME280_pressure;Samples;Min_cycle;Max_cycle;Signal;HPM_P1;HPM_P2
2022/11/22 00:02:19;;;;;;;8.10;3.95;;;;;;;3.15;87.25;96321.44;5032877;28;20694;-83
2022/11/22 00:04:45;;;;;;;4.82;3.67;;;;;;;3.13;87.83;96326.81;5016580;28;20485;-83
2022/11/22 00:07:10;;;;;;;4.95;3.72;;;;;;;3.17;87.79;96319.44;5015651;28;20113;-83
2022/11/22 00:09:36;;;;;;;5.28;3.72;;;;;;;3.14;87.61;96320.63;5020192;28;20112;-83
2022/11/22 00:12:01;;;;;;;6.78;3.90;;;;;;;3.15;87.71;96305.91;5018796;28;20504;-83
2022/11/22 00:14:27;;;;;;;5.85;3.88;;;;;;;3.16;87.89;96299.72;5017375;28;20034;-83
2022/11/22 00:16:53;;;;;;;8.00;3.50;;;;;;;3.04;87.45;96301.28;5017553;28;20113;-83
2022/11/22 00:19:19;;;;;;;7.05;3.72;;;;;;;3.04;88.21;96294.31;5019146;28;20094;-83
2022/11/22 00:21:44;;;;;;;5.78;4.22;;;;;;;3.01;88.47;96297.31;5019007;28;20649;-83
2022/11/22 00:24:13;;;;;;;9.10;5.80;;;;;;;2.99;88.76;96280.34;5015314;28;20045;-83
2022/11/22 00:26:38;;;;;;;6.97;5.18;;;;;;;3.08;88.60;96289.53;5018117;28;20049;-83
2022/11/22 00:29:04;;;;;;;6.43;4.25;;;;;;;3.11;88.61;96287.34;5018127;28;20033;-82
2022/11/22 00:31:30;;;;;;;8.18;4.90;;;;;;;3.17;88.49;96280.56;5016814;28;20046;-83
2022/11/22 00:33:56;;;;;;;5.85;4.50;;;;;;;3.23;88.13;96272.03;5018614;28;20654;-83
2022/11/22 00:36:22;;;;;;;6.68;4.22;;;;;;;3.25;88.05;96279.63;5008174;28;20061;-83
2022/11/22 00:38:47;;;;;;;5.10;3.95;;;;;;;3.25;87.70;96289.97;5014682;28;20038;-83
2022/11/22 00:41:13;;;;;;;5.57;4.60;;;;;;;3.27;87.40;96282.78;5015071;28;20030;-83
2022/11/22 00:43:38;;;;;;;6.07;4.10;;;;;;;3.21;88.00;96271.44;5018948;28;20069;-83
2022/11/22 00:46:03;;;;;;;5.78;4.70;;;;;;;3.32;88.24;96270.84;5015828;28;20533;-83
2022/11/22 00:48:29;;;;;;;6.10;3.97;;;;;;;3.29;87.61;96271.22;5017976;28;20342;-83
2022/11/22 00:50:55;;;;;;;5.97;4.07;;;;;;;3.30;87.67;96270.25;5018466;28;20029;-83
2022/11/22 00:53:22;;;;;;;6.93;4.50;;;;;;;3.33;87.94;96267.25;5019544;28;20041;-83
2022/11/22 00:55:48;;;;;;;6.90;4.38;;;;;;;3.23;87.77;96251.28;5018610;28;20065;-83
2022/11/22 00:58:16;;;;;;;7.53;4.43;;;;;;;3.30;88.24;96257.31;5016978;28;20516;-83
2022/11/22 01:00:41;;;;;;;5.25;4.03;;;;;;;3.33;87.99;96267.25;5019781;28;20033;-83
2022/11/22 01:03:11;;;;;;;5.05;4.07;;;;;;;3.37;88.17;96247.72;5017162;28;20045;-83
2022/11/22 01:05:38;;;;;;;7.15;4.43;;;;;;;3.37;87.79;96258.09;5012900;28;20041;-83
2022/11/22 01:08:03;;;;;;;8.85;4.63;;;;;;;3.37;87.65;96263.28;5016894;28;20041;-83
2022/11/22 01:10:29;;;;;;;7.32;4.93;;;;;;;3.36;87.75;96256.50;5019543;28;20038;-83
2022/11/22 01:12:57;;;;;;;7.68;4.13;;;;;;;3.40;87.51;96251.72;5020490;28;20103;-83
2022/11/22 01:15:23;;;;;;;7.20;4.25;;;;;;;3.36;87.26;96256.50;5021139;28;20045;-83
2022/11/22 01:17:49;;;;;;;5.05;3.63;;;;;;;3.31;87.23;96258.91;5020960;28;20429;-83
2022/11/22 01:20:15;;;;;;;5.28;4.03;;;;;;;3.25;87.55;96249.31;5023422;28;20037;-83
2022/11/22 01:22:40;;;;;;;7.10;4.75;;;;;;;3.27;88.25;96247.31;5021018;28;20045;-83
2022/11/22 01:25:07;;;;;;;5.78;4.35;;;;;;;3.33;88.01;96251.72;5017229;28;20033;-84
2022/11/22 01:27:33;;;;;;;6.75;3.72;;;;;;;3.39;88.29;96250.91;5021551;28;20116;-83
2022/11/22 01:30:03;;;;;;;7.85;4.35;;;;;;;3.39;87.47;96250.13;5018005;28;20060;-83
2022/11/22 01:32:28;;;;;;;7.53;4.97;;;;;;;3.36;87.83;96240.97;5019437;28;20045;-82
2022/11/22 01:34:54;;;;;;;7.35;4.57;;;;;;;3.40;87.77;96242.13;5019435;28;20043;-83
2022/11/22 01:37:19;;;;;;;6.70;4.53;;;;;;;3.34;87.88;96242.13;5024067;28;20634;-83
2022/11/22 01:39:45;;;;;;;5.45;4.40;;;;;;;3.36;88.14;96251.31;5021948;28;20068;-83
2022/11/22 01:42:13;;;;;;;7.40;4.60;;;;;;;3.42;87.66;96242.75;5020455;28;20445;-83
2022/11/22 01:44:41;;;;;;;8.00;4.57;;;;;;;3.44;87.59;96238.16;5018206;28;20038;-83
2022/11/22 01:47:13;;;;;;;6.72;4.32;;;;;;;3.53;88.02;96232.75;5024441;28;20033;-83
2022/11/22 01:49:45;;;;;;;9.38;4.20;;;;;;;3.48;87.33;96229.00;5020292;28;20034;-83
2022/11/22 01:52:19;;;;;;;4.88;3.53;;;;;;;3.37;86.92;96221.81;5020805;28;20120;-83
2022/11/22 01:54:54;;;;;;;5.30;4.38;;;;;;;3.48;87.82;96223.81;5020533;28;20037;-83
2022/11/22 01:57:26;;;;;;;5.50;4.40;;;;;;;3.44;86.90;96232.19;5021416;28;20175;-83
2022/11/22 02:00:08;;;;;;;6.60;4.10;;;;;;;3.45;87.29;96223.41;5022970;28;20153;-83
2022/11/22 02:02:36;;;;;;;8.60;4.72;;;;;;;3.52;87.03;96233.75;5022722;28;20038;-83
2022/11/22 02:05:07;;;;;;;5.57;3.85;;;;;;;3.45;86.93;96233.78;5019730;28;20377;-83
2022/11/22 02:07:40;;;;;;;5.55;4.22;;;;;;;3.41;87.59;96225.59;5022784;28;20030;-83
2022/11/22 02:10:07;;;;;;;6.70;4.40;;;;;;;3.38;87.54;96218.22;5008169;28;20477;-82
2022/11/22 02:12:35;;;;;;;6.57;4.13;;;;;;;3.46;87.72;96225.78;5018716;28;20049;-82
2022/11/22 02:15:01;;;;;;;9.32;4.60;;;;;;;3.47;87.42;96221.41;5020229;28;20041;-83
2022/11/22 02:17:27;;;;;;;5.47;4.15;;;;;;;3.39;87.47;96225.00;5020096;28;20060;-83
2022/11/22 02:19:54;;;;;;;9.35;5.10;;;;;;;3.45;88.08;96216.41;5020337;28;20093;-83
2022/11/22 02:22:44;;;;;;;7.30;4.40;;;;;;;3.52;87.65;96213.03;5020478;28;20762;-83
2022/11/22 02:25:41;;;;;;;10.43;5.05;;;;;;;3.51;87.38;96221.81;5017853;28;20684;-83
2022/11/22 02:28:13;;;;;;;6.53;3.67;;;;;;;3.48;87.75;96218.63;5019379;28;20583;-83
2022/11/22 02:30:40;;;;;;;5.97;4.10;;;;;;;3.49;88.04;96209.84;5016318;28;20397;-83
2022/11/22 02:33:07;;;;;;;5.85;4.47;;;;;;;3.48;87.53;96216.03;5020012;28;20038;-83
2022/11/22 02:35:33;;;;;;;13.93;4.60;;;;;;;3.46;87.78;96210.22;5019220;28;20441;-83
2022/11/22 02:38:07;;;;;;;5.93;4.40;;;;;;;3.54;87.89;96216.22;5021278;28;20064;-82
2022/11/22 02:40:55;;;;;;;6.25;4.30;;;;;;;3.64;87.28;96232.16;5019582;28;20136;-83
2022/11/22 02:43:27;;;;;;;7.68;4.45;;;;;;;3.62;87.03;96228.97;5021802;28;20036;-83
2022/11/22 02:45:52;;;;;;;5.82;4.25;;;;;;;3.66;87.25;96241.34;5004274;28;20065;-83
2022/11/22 02:48:18;;;;;;;6.25;4.00;;;;;;;3.67;87.64;96242.94;5022874;28;20088;-83
2022/11/22 02:50:44;;;;;;;5.30;4.22;;;;;;;3.74;86.80;96253.28;5017966;28;20071;-83
2022/11/22 02:53:10;;;;;;;7.13;4.28;;;;;;;3.77;86.63;96250.28;5021585;28;20041;-83
2022/11/22 02:55:36;;;;;;;6.47;3.90;;;;;;;3.71;86.01;96244.09;5019986;28;20114;-83
2022/11/22 02:58:04;;;;;;;5.00;3.60;;;;;;;3.71;86.43;96258.88;5022649;28;20589;-83
2022/11/22 03:00:32;;;;;;;5.20;3.75;;;;;;;3.73;85.98;96254.31;5016848;28;20034;-83
2022/11/22 03:03:00;;;;;;;6.38;3.95;;;;;;;3.69;86.10;96255.69;5019979;28;20038;-83
2022/11/22 03:05:26;;;;;;;4.72;3.67;;;;;;;3.70;86.48;96241.72;5020513;28;20033;-83
2022/11/22 03:07:52;;;;;;;4.68;3.25;;;;;;;3.73;86.03;96236.94;5019072;28;20048;-83
2022/11/22 03:10:17;;;;;;;6.00;3.70;;;;;;;3.69;85.97;96235.75;5021460;28;20033;-83
2022/11/22 03:12:43;;;;;;;5.45;3.78;;;;;;;3.60;86.52;96236.97;5017875;28;20113;-82
2022/11/22 03:15:09;;;;;;;6.75;3.88;;;;;;;3.57;86.67;96241.75;5019640;28;20043;-82
2022/11/22 03:17:34;;;;;;;5.18;3.83;;;;;;;3.59;87.12;96237.94;5019361;28;20053;-83
2022/11/22 03:20:00;;;;;;;5.80;3.40;;;;;;;3.57;86.53;96239.94;5019592;28;20037;-83
2022/11/22 03:22:26;;;;;;;4.65;3.60;;;;;;;3.60;87.15;96249.09;5018043;28;20037;-83
2022/11/22 03:24:51;;;;;;;5.95;3.60;;;;;;;3.62;87.55;96252.31;5017724;28;20045;-83
2022/11/22 03:27:17;;;;;;;5.93;4.18;;;;;;;3.59;86.95;96245.72;5016317;28;20022;-83
2022/11/22 03:29:42;;;;;;;5.05;4.15;;;;;;;3.66;87.29;96256.91;5018638;28;20041;-83
2022/11/22 03:32:08;;;;;;;5.70;3.60;;;;;;;3.72;86.84;96255.31;5017670;28;20508;-84
2022/11/22 03:34:34;;;;;;;5.70;4.00;;;;;;;3.74;86.73;96261.06;5017247;28;20045;-83
2022/11/22 03:36:59;;;;;;;4.25;3.60;;;;;;;3.74;86.53;96259.28;5019841;28;20042;-83
2022/11/22 03:39:25;;;;;;;6.60;4.07;;;;;;;3.82;86.39;96273.03;5019078;28;20361;-83
2022/11/22 03:41:50;;;;;;;6.03;3.50;;;;;;;3.74;85.45;96264.47;5022172;28;20097;-83
2022/11/22 03:44:16;;;;;;;7.50;4.20;;;;;;;3.83;85.69;96272.81;5019771;28;20034;-83
2022/11/22 03:46:41;;;;;;;5.60;3.80;;;;;;;3.81;85.84;96264.44;5017290;28;20120;-83
2022/11/22 03:49:07;;;;;;;5.72;3.38;;;;;;;3.85;85.76;96267.44;5020372;28;20056;-83
2022/11/22 03:51:32;;;;;;;5.30;3.72;;;;;;;3.86;85.32;96267.25;5015802;28;20037;-83
2022/11/22 03:53:58;;;;;;;5.57;3.88;;;;;;;3.86;85.18;96256.88;5020799;28;20120;-83
2022/11/22 03:56:23;;;;;;;5.93;3.63;;;;;;;3.90;84.99;96263.25;5016403;28;20037;-83
2022/11/22 03:58:49;;;;;;;4.43;3.40;;;;;;;3.86;84.46;96256.88;5021759;28;20493;-83
2022/11/22 04:01:15;;;;;;;4.65;3.10;;;;;;;3.85;85.32;96254.47;5021080;28;20440;-83
2022/11/22 04:03:40;;;;;;;4.45;3.30;;;;;;;3.80;85.76;96260.28;5018525;28;20465;-83
2022/11/22 04:06:06;;;;;;;6.10;3.28;;;;;;;3.84;85.93;96258.88;5017766;28;20674;-83
2022/11/22 04:08:31;;;;;;;5.53;3.38;;;;;;;3.86;85.77;96269.84;5019923;28;20519;-83
2022/11/22 04:10:56;;;;;;;7.00;3.90;;;;;;;3.95;86.32;96276.41;5016363;28;20121;-83
2022/11/22 04:15:05;;;;;;;4.85;3.33;;;;;;;3.91;84.74;96262.25;5019817;28;20033;-83
2022/11/22 04:16:07;;;;;;;5.13;3.45;;;;;;;3.99;85.62;96266.41;5017379;28;20030;-83
2022/11/22 04:18:33;;;;;;;6.10;3.40;;;;;;;4.05;85.48;96275.19;5017989;28;20507;-83
2022/11/22 04:23:42;;;;;;;4.93;3.58;;;;;;;4.06;84.90;96281.97;5017948;28;20044;-83
2022/11/22 04:26:08;;;;;;;4.38;3.20;;;;;;;4.05;84.82;96285.56;5015361;28;20544;-83
2022/11/22 04:28:33;;;;;;;5.00;3.70;;;;;;;4.07;84.57;96286.16;5017828;28;20048;-83
2022/11/22 04:33:43;;;;;;;6.38;3.53;;;;;;;3.95;84.85;96276.41;5015311;28;20477;-83
2022/11/22 04:36:08;;;;;;;4.93;3.53;;;;;;;4.04;85.63;96282.19;5017275;28;20117;-83
2022/11/22 04:38:34;;;;;;;5.32;3.70;;;;;;;4.06;85.95;96287.16;5021433;28;20116;-83
2022/11/22 04:40:59;;;;;;;4.95;3.53;;;;;;;4.03;85.17;96298.75;5020210;28;20038;-83
2022/11/22 04:46:14;;;;;;;5.35;3.20;;;;;;;3.97;85.00;96295.16;5019354;28;20034;-83
2022/11/22 04:48:40;;;;;;;5.25;3.05;;;;;;;4.01;85.70;96293.75;5022264;28;20045;-83
2022/11/22 04:53:54;;;;;;;5.63;3.25;;;;;;;4.07;85.14;96299.13;5021853;28;20064;-83
2022/11/22 04:56:20;;;;;;;5.93;3.20;;;;;;;4.05;85.16;96294.16;5023138;28;20073;-83
2022/11/22 04:58:45;;;;;;;6.05;3.28;;;;;;;3.98;85.70;96281.19;5022423;28;20045;-83
2022/11/22 05:01:11;;;;;;;3.85;2.83;;;;;;;4.11;85.30;96295.13;5019919;28;20033;-83
2022/11/22 05:03:36;;;;;;;6.80;3.40;;;;;;;4.11;85.49;96300.31;5019566;28;20037;-83
2022/11/22 05:06:04;;;;;;;4.97;3.13;;;;;;;4.19;85.62;96297.50;5017736;28;20041;-83
2022/11/22 05:08:30;;;;;;;5.50;3.75;;;;;;;4.28;85.87;96278.13;5020369;28;20041;-82
2022/11/22 05:10:56;;;;;;;4.00;3.10;;;;;;;4.38;85.38;96281.09;5018684;28;20033;-83
2022/11/22 05:13:30;;;;;;;3.60;2.70;;;;;;;4.40;85.24;96294.66;5021848;28;20048;-84
2022/11/22 05:15:57;;;;;;;5.13;3.15;;;;;;;4.40;83.75;96294.66;5022686;28;20448;-83
2022/11/22 05:18:26;;;;;;;7.13;3.40;;;;;;;4.47;84.10;96302.44;5019441;28;20477;-83
2022/11/22 05:20:53;;;;;;;4.88;3.08;;;;;;;4.51;84.39;96301.81;5019105;28;20544;-83
2022/11/22 05:26:05;;;;;;;3.78;2.90;;;;;;;4.66;84.63;96288.56;5021232;28;20039;-83
2022/11/22 05:28:34;;;;;;;5.43;3.03;;;;;;;4.70;83.76;96287.19;5019825;28;20133;-83
2022/11/22 05:31:09;;;;;;;4.47;3.03;;;;;;;4.76;83.89;96288.16;5019168;28;20148;-83
2022/11/22 05:33:41;;;;;;;4.05;3.08;;;;;;;4.72;83.34;96294.75;5018755;28;20038;-83
2022/11/22 05:36:07;;;;;;;6.18;3.33;;;;;;;4.67;83.03;96299.75;5023184;28;20049;-83
2022/11/22 05:38:36;;;;;;;4.10;2.97;;;;;;;4.62;83.02;96294.38;5021751;28;20037;-83
2022/11/22 05:41:03;;;;;;;5.20;2.97;;;;;;;4.62;83.96;96294.38;5018710;28;20524;-83
2022/11/22 05:43:29;;;;;;;5.22;3.20;;;;;;;4.64;83.80;96300.97;5024450;28;20147;-83
2022/11/22 05:45:55;;;;;;;4.88;3.22;;;;;;;4.69;83.54;96302.97;5016789;28;20092;-83
2022/11/22 05:48:21;;;;;;;4.35;3.50;;;;;;;4.71;83.37;96301.75;5016929;28;20132;-83
2022/11/22 05:50:46;;;;;;;4.50;3.20;;;;;;;4.75;83.57;96302.16;5019937;28;20040;-83
2022/11/22 05:53:12;;;;;;;3.97;3.03;;;;;;;4.81;83.43;96311.72;5021849;28;20037;-84
2022/11/22 05:55:37;;;;;;;4.82;3.38;;;;;;;4.87;83.16;96307.50;5019745;28;20042;-83
2022/11/22 05:58:03;;;;;;;4.40;3.55;;;;;;;4.87;83.21;96302.28;5019515;28;20037;-82
2022/11/22 06:00:29;;;;;;;5.38;3.60;;;;;;;4.80;83.01;96304.94;5021625;28;20743;-82
2022/11/22 06:03:03;;;;;;;5.07;3.88;;;;;;;4.81;84.04;96312.50;5015966;28;20050;-83
2022/11/22 06:05:29;;;;;;;5.95;3.78;;;;;;;4.90;84.95;96315.66;5018273;28;20044;-83
2022/11/22 06:07:59;;;;;;;5.63;3.80;;;;;;;4.85;83.91;96318.06;5021918;28;20034;-83
2022/11/22 06:10:25;;;;;;;5.72;3.50;;;;;;;4.87;83.79;96321.28;5018225;28;20041;-83
2022/11/22 06:12:51;;;;;;;6.75;3.47;;;;;;;4.90;83.84;96331.22;5018835;28;20056;-83
2022/11/22 06:15:17;;;;;;;3.47;3.10;;;;;;;4.98;84.35;96332.81;5021104;28;20517;-83
2022/11/22 06:17:42;;;;;;;4.25;3.05;;;;;;;5.04;83.82;96343.19;5024312;28;20044;-83
2022/11/22 06:20:08;;;;;;;4.00;3.33;;;;;;;5.04;83.60;96345.78;5017263;28;20128;-83
2022/11/22 06:22:34;;;;;;;5.20;3.90;;;;;;;5.05;83.87;96344.78;5020699;28;20064;-84
2022/11/22 06:24:59;;;;;;;4.25;3.00;;;;;;;5.05;84.30;96339.56;5016348;28;20525;-83
2022/11/22 06:27:25;;;;;;;4.25;3.42;;;;;;;5.04;83.74;96340.59;5030540;28;20029;-83
2022/11/22 06:29:50;;;;;;;5.40;3.22;;;;;;;5.14;83.46;96342.72;5016715;28;20660;-84
2022/11/22 06:32:16;;;;;;;7.18;3.38;;;;;;;5.08;83.10;96344.34;5012031;28;20042;-84
2022/11/22 06:34:42;;;;;;;5.38;3.45;;;;;;;5.12;83.79;96349.94;5023402;28;20092;-84
2022/11/22 06:37:07;;;;;;;4.40;3.30;;;;;;;5.18;83.70;96350.91;5017286;28;20048;-84
2022/11/22 06:39:33;;;;;;;5.70;3.63;;;;;;;5.17;82.73;96351.91;5022082;28;20116;-84
2022/11/22 06:41:58;;;;;;;4.47;3.42;;;;;;;5.16;82.49;96365.88;5004328;28;20039;-84
2022/11/22 06:44:26;;;;;;;3.90;3.35;;;;;;;5.17;83.10;96363.09;5013422;28;20069;-84
2022/11/22 06:46:52;;;;;;;5.78;3.90;;;;;;;5.20;83.30;96357.47;5018139;28;20041;-84
2022/11/22 06:49:17;;;;;;;6.05;4.03;;;;;;;5.22;83.30;96365.09;5014148;28;20060;-84
2022/11/22 06:51:43;;;;;;;5.75;3.50;;;;;;;5.21;83.60;96360.88;5012057;28;20038;-84
2022/11/22 06:54:12;;;;;;;5.43;3.85;;;;;;;5.09;83.04;96350.34;5016638;28;20068;-84
2022/11/22 06:56:40;;;;;;;4.40;3.28;;;;;;;5.18;83.38;96358.69;5006630;28;20481;-84
2022/11/22 06:59:06;;;;;;;5.57;3.65;;;;;;;5.23;83.51;96353.69;5019364;28;20088;-84
2022/11/22 07:01:34;;;;;;;4.93;3.60;;;;;;;5.24;83.15;96363.88;5019466;28;20040;-84
2022/11/22 07:04:02;;;;;;;10.52;6.10;;;;;;;5.25;83.22;96368.06;5015698;28;20033;-84
2022/11/22 07:06:32;;;;;;;11.60;5.85;;;;;;;5.33;83.37;96377.41;5017241;28;20025;-84
2022/11/22 07:09:00;;;;;;;6.53;3.88;;;;;;;5.33;83.47;96367.00;5014153;28;20516;-84
2022/11/22 07:11:29;;;;;;;7.28;3.78;;;;;;;5.32;82.65;96370.63;5016996;28;20111;-84
2022/11/22 07:13:57;;;;;;;4.78;3.72;;;;;;;5.41;83.57;96371.97;5015379;28;20381;-83
2022/11/22 07:16:22;;;;;;;6.10;3.72;;;;;;;5.40;82.18;96378.19;5014052;28;20033;-84
2022/11/22 07:18:48;;;;;;;7.07;3.90;;;;;;;5.42;83.20;96393.56;5009721;28;20425;-84
2022/11/22 07:21:15;;;;;;;5.28;4.05;;;;;;;5.49;83.45;96397.72;5014346;28;20057;-84
2022/11/22 07:23:43;;;;;;;4.78;3.55;;;;;;;5.50;82.56;96407.13;5020173;28;20037;-84
2022/11/22 07:26:13;;;;;;;9.80;6.03;;;;;;;5.51;83.04;96406.09;5020178;28;20034;-84
2022/11/22 07:28:40;;;;;;;4.82;4.38;;;;;;;5.58;83.74;96417.28;5020605;28;20091;-84
2022/11/22 07:31:08;;;;;;;6.30;4.43;;;;;;;5.69;84.33;96420.22;5013683;28;20042;-83
2022/11/22 07:33:34;;;;;;;4.88;4.07;;;;;;;5.71;83.01;96416.41;5022080;28;20060;-84
2022/11/22 07:36:06;;;;;;;5.47;4.28;;;;;;;5.78;83.52;96411.16;5022348;28;20079;-84
2022/11/22 07:38:32;;;;;;;6.32;4.18;;;;;;;5.79;82.70;96418.75;5012975;28;20072;-84
2022/11/22 07:40:59;;;;;;;8.52;3.85;;;;;;;5.89;83.00;96429.50;5016755;28;20104;-83
2022/11/22 07:43:24;;;;;;;5.45;3.70;;;;;;;5.89;82.33;96431.31;5021113;28;20030;-84
2022/11/22 07:45:50;;;;;;;5.40;3.67;;;;;;;5.95;81.89;96432.31;5014546;28;20041;-85
2022/11/22 07:48:16;;;;;;;8.20;4.18;;;;;;;5.97;81.95;96433.69;5019133;28;20144;-84
2022/11/22 07:50:44;;;;;;;7.25;4.20;;;;;;;6.07;82.31;96441.81;5018727;28;20026;-84
2022/11/22 07:53:09;;;;;;;5.10;3.88;;;;;;;5.89;81.25;96423.50;5033383;28;20087;-83
2022/11/22 07:55:35;;;;;;;9.30;4.70;;;;;;;5.94;81.03;96447.13;5019540;28;20507;-83
2022/11/22 07:58:01;;;;;;;8.57;4.70;;;;;;;5.93;80.88;96452.53;5009886;28;20038;-84
2022/11/22 08:00:27;;;;;;;7.55;4.50;;;;;;;6.00;81.94;96468.88;5012028;28;20030;-84
2022/11/22 08:03:23;;;;;;;6.90;4.82;;;;;;;6.01;81.66;96463.50;5004527;28;20112;-83
2022/11/22 08:05:49;;;;;;;5.68;4.53;;;;;;;5.94;81.70;96462.75;5014810;28;20068;-83
2022/11/22 08:08:14;;;;;;;6.38;4.55;;;;;;;6.06;81.63;96476.69;5012156;28;20065;-83
2022/11/22 08:10:40;;;;;;;10.02;5.20;;;;;;;6.10;82.61;96477.03;5000188;28;20449;-83
2022/11/22 08:13:05;;;;;;;8.23;4.32;;;;;;;6.20;82.33;96479.97;5003330;28;20541;-83
2022/11/22 08:15:31;;;;;;;5.57;4.07;;;;;;;6.25;81.13;96484.56;5005242;28;20452;-83
2022/11/22 08:17:58;;;;;;;5.68;4.30;;;;;;;6.31;81.08;96494.94;5000896;28;20041;-83
2022/11/22 08:20:24;;;;;;;6.55;4.28;;;;;;;6.41;81.89;96497.03;5002021;28;20505;-83
2022/11/22 08:22:49;;;;;;;6.57;4.20;;;;;;;6.53;81.67;96497.94;5002854;28;20029;-83
2022/11/22 08:25:15;;;;;;;6.00;3.65;;;;;;;6.57;80.68;96490.50;5007373;28;20068;-82
2022/11/22 08:27:43;;;;;;;7.57;4.38;;;;;;;6.71;81.37;96500.59;5006823;28;20075;-83
2022/11/22 08:30:10;;;;;;;6.72;4.07;;;;;;;6.81;80.77;96499.31;5001493;28;20053;-83
2022/11/22 08:32:37;;;;;;;5.72;4.03;;;;;;;6.86;79.87;96508.09;5000855;28;20125;-83
2022/11/22 08:35:04;;;;;;;6.18;3.78;;;;;;;6.93;80.52;96513.25;5002580;28;20072;-83
2022/11/22 08:37:30;;;;;;;5.78;3.97;;;;;;;7.07;80.76;96511.31;5003861;28;20149;-83
2022/11/22 08:39:56;;;;;;;8.48;4.32;;;;;;;7.18;80.44;96506.19;5007363;28;20034;-83
2022/11/22 08:42:21;;;;;;;8.85;4.13;;;;;;;7.23;78.92;96511.53;5006641;28;20056;-82
2022/11/22 08:44:47;;;;;;;9.10;4.03;;;;;;;7.27;78.29;96504.09;5000578;28;20042;-82
2022/11/22 08:47:14;;;;;;;5.90;4.50;;;;;;;7.38;78.95;96499.97;5010144;28;20076;-83
2022/11/22 08:49:40;;;;;;;8.60;5.25;;;;;;;7.54;79.94;96506.41;5002232;28;20041;-83
2022/11/22 08:52:05;;;;;;;7.82;4.43;;;;;;;7.69;78.23;96510.22;5006487;28;20045;-83
2022/11/22 08:54:31;;;;;;;11.77;4.68;;;;;;;7.70;77.60;96505.81;5001434;28;20095;-83
2022/11/22 08:56:56;;;;;;;7.35;4.78;;;;;;;7.67;77.65;96504.41;5008320;28;20513;-83
2022/11/22 08:59:22;;;;;;;6.97;4.68;;;;;;;7.69;77.43;96504.22;5005556;28;20066;-82
2022/11/22 09:01:47;;;;;;;9.40;5.68;;;;;;;7.75;77.22;96511.16;5008261;28;20466;-83
2022/11/22 09:04:13;;;;;;;6.97;4.93;;;;;;;7.74;77.84;96510.38;5006863;28;20169;-83
2022/11/22 09:06:39;;;;;;;8.60;5.65;;;;;;;7.71;77.40;96508.19;5000111;28;20044;-83
2022/11/22 09:09:05;;;;;;;6.82;4.43;;;;;;;7.71;76.99;96513.41;5004739;28;20366;-82
2022/11/22 09:11:30;;;;;;;7.03;4.95;;;;;;;7.84;78.57;96512.44;5007561;28;20030;-82
2022/11/22 09:13:56;;;;;;;10.82;3.92;;;;;;;7.86;76.55;96507.03;5003315;28;20063;-82
2022/11/22 09:16:22;;;;;;;7.88;3.97;;;;;;;7.91;77.30;96525.41;5003180;28;20033;-83
2022/11/22 09:18:48;;;;;;;6.40;4.38;;;;;;;8.05;79.89;96517.19;5006908;28;20070;-82
2022/11/22 09:21:18;;;;;;;7.60;3.75;;;;;;;8.03;76.86;96518.41;5005945;28;20457;-82
2022/11/22 09:23:47;;;;;;;8.07;3.47;;;;;;;8.01;76.56;96515.25;5009226;28;20061;-82
2022/11/22 09:26:17;;;;;;;9.05;3.72;;;;;;;7.99;77.98;96512.06;5003391;28;20556;-82
2022/11/22 09:28:43;;;;;;;6.68;2.92;;;;;;;8.00;76.51;96517.06;5005570;28;20543;-82
2022/11/22 09:31:14;;;;;;;10.70;3.55;;;;;;;7.94;78.14;96515.31;5003907;28;20109;-82
2022/11/22 09:33:43;;;;;;;7.07;3.20;;;;;;;8.09;77.29;96525.34;4997452;28;20037;-82
2022/11/22 09:36:19;;;;;;;7.47;3.50;;;;;;;8.27;78.81;96529.72;5024900;28;20053;-83
2022/11/22 09:38:45;;;;;;;9.05;3.60;;;;;;;8.29;76.12;96533.72;5019480;28;20120;-82
2022/11/22 09:41:51;;;;;;;8.38;3.65;;;;;;;8.41;76.77;96530.38;5004548;28;20092;-83
2022/11/22 09:44:40;;;;;;;11.40;3.55;;;;;;;8.37;75.34;96529.22;5007915;28;20536;-82
2022/11/22 09:47:44;;;;;;;9.02;3.67;;;;;;;8.43;74.12;96528.34;5002457;28;20034;-82
2022/11/22 09:50:40;;;;;;;8.82;3.80;;;;;;;8.53;75.08;96528.59;5005456;28;20117;-83
2022/11/22 09:53:24;;;;;;;7.45;3.28;;;;;;;8.71;75.61;96531.13;5003525;28;20042;-83
2022/11/22 09:55:56;;;;;;;9.30;4.10;;;;;;;8.80;75.54;96537.59;5005336;28;20042;-83
2022/11/22 09:58:29;;;;;;;9.80;3.17;;;;;;;8.73;74.80;96534.31;5002597;28;20120;-82
2022/11/22 10:01:22;;;;;;;8.98;3.60;;;;;;;8.54;74.13;96530.19;5006216;28;20026;-82
2022/11/22 10:04:26;;;;;;;7.45;3.20;;;;;;;8.31;73.82;96539.53;5008633;28;20635;-83
2022/11/22 10:07:00;;;;;;;7.35;3.50;;;;;;;8.25;74.81;96529.97;5007865;28;20036;-82
2022/11/22 10:09:50;;;;;;;6.63;2.90;;;;;;;8.29;75.53;96544.19;5005830;28;20063;-83
2022/11/22 10:12:32;;;;;;;10.65;3.40;;;;;;;8.37;74.94;96539.69;5011891;28;20030;-82
2022/11/22 10:15:26;;;;;;;5.00;3.08;;;;;;;8.36;75.49;96533.66;5006448;28;20385;-82
2022/11/22 10:18:00;;;;;;;5.55;2.65;;;;;;;8.30;75.21;96524.06;5000534;28;20056;-83
2022/11/22 10:20:29;;;;;;;6.90;3.05;;;;;;;8.31;74.49;96536.13;5002770;28;20384;-83
2022/11/22 10:22:58;;;;;;;8.40;2.40;;;;;;;8.42;73.93;96526.75;5009966;28;20034;-82
2022/11/22 10:25:41;;;;;;;8.45;1.83;;;;;;;8.55;71.44;96548.25;5007279;28;20072;-82
2022/11/22 10:28:34;;;;;;;7.05;2.17;;;;;;;8.39;70.25;96546.25;5020006;28;20503;-82
2022/11/22 10:31:19;;;;;;;8.80;1.92;;;;;;;8.49;71.26;96549.13;5006766;28;20045;-83
2022/11/22 10:33:47;;;;;;;5.60;1.73;;;;;;;8.55;70.51;96553.47;5007787;28;20038;-83
2022/11/22 10:36:35;;;;;;;8.30;2.00;;;;;;;8.49;69.21;96559.59;4999488;28;20041;-83
2022/11/22 10:39:39;;;;;;;5.78;2.10;;;;;;;8.39;69.26;96558.53;5003960;28;20801;-83
2022/11/22 10:42:07;;;;;;;5.15;1.60;;;;;;;8.31;69.56;96565.63;5006587;28;20031;-83
2022/11/22 10:44:46;;;;;;;5.55;1.95;;;;;;;8.29;69.55;96557.25;5002245;28;20033;-82
2022/11/22 10:47:38;;;;;;;9.65;2.33;;;;;;;8.39;69.82;96563.75;5003784;28;20041;-83
2022/11/22 10:50:18;;;;;;;7.05;1.90;;;;;;;8.31;69.39;96568.25;5001811;28;20083;-82
2022/11/22 10:53:32;;;;;;;5.90;1.67;;;;;;;8.28;70.22;96571.31;5007787;28;20129;-83
2022/11/22 10:56:42;;;;;;;5.97;2.05;;;;;;;8.27;69.51;96572.31;4994015;28;20050;-83
2022/11/22 10:59:23;;;;;;;6.38;1.90;;;;;;;8.34;70.70;96564.41;5003963;28;20057;-82
2022/11/22 11:02:35;;;;;;;8.98;2.05;;;;;;;8.37;70.68;96574.44;5007225;28;20111;-83
2022/11/22 11:05:09;;;;;;;5.82;1.73;;;;;;;8.46;69.70;96560.06;5004350;28;20425;-82
2022/11/22 11:07:40;;;;;;;7.35;1.77;;;;;;;8.56;68.82;96569.94;4996455;28;20105;-83
2022/11/22 11:10:16;;;;;;;;;;;;;;;8.56;68.22;96570.75;5004711;28;20053;-82
2022/11/22 11:12:51;;;;;;;7.13;2.00;;;;;;;8.66;69.84;96574.63;5005467;28;19999;-83
2022/11/22 11:15:35;;;;;;;7.13;2.00;;;;;;;8.72;70.05;96571.13;5008702;28;20034;-83
2022/11/22 11:18:11;;;;;;;5.20;1.63;;;;;;;8.78;69.27;96572.84;5007248;28;20034;-83
2022/11/22 11:20:41;;;;;;;6.10;1.95;;;;;;;8.92;69.61;96573.41;5007397;28;20161;-83
2022/11/22 11:23:17;;;;;;;8.60;2.05;;;;;;;8.96;69.75;96574.56;5007211;28;20418;-83
2022/11/22 11:25:45;;;;;;;7.38;1.90;;;;;;;8.94;67.94;96574.00;5006138;28;20092;-82
2022/11/22 11:28:26;;;;;;;6.93;1.67;;;;;;;8.90;67.92;96576.28;4997387;28;20554;-83
2022/11/22 11:31:05;;;;;;;6.75;1.42;;;;;;;8.86;66.92;96572.50;5000985;28;20046;-83
2022/11/22 11:33:37;;;;;;;7.18;1.73;;;;;;;8.77;66.32;96573.88;5009041;28;20058;-82
2022/11/22 11:36:12;;;;;;;3.92;1.45;;;;;;;8.84;66.96;96559.66;5004813;28;20088;-82
2022/11/22 11:38:41;;;;;;;5.90;1.40;;;;;;;9.01;67.71;96566.84;4998786;28;20062;-83
2022/11/22 11:41:23;;;;;;;7.53;1.70;;;;;;;8.94;65.88;96560.94;5010070;28;20026;-83
2022/11/22 11:43:51;;;;;;;5.78;1.50;;;;;;;8.95;66.26;96557.28;5006018;28;20110;-83
2022/11/22 11:46:26;;;;;;;9.70;2.20;;;;;;;8.97;66.43;96544.78;5006654;28;20041;-83
2022/11/22 11:48:54;;;;;;;5.72;1.40;;;;;;;8.94;66.01;96553.88;5000674;28;20506;-83
2022/11/22 11:51:36;;;;;;;3.90;1.35;;;;;;;8.96;66.32;96543.19;5006052;28;20033;-83
2022/11/22 11:54:18;;;;;;;5.50;1.27;;;;;;;8.98;68.35;96546.38;5006309;28;20262;-82
2022/11/22 11:57:09;;;;;;;4.78;1.50;;;;;;;9.02;66.86;96552.75;5002374;28;20078;-83
2022/11/22 11:59:35;;;;;;;4.97;1.50;;;;;;;9.12;66.22;96553.00;5006449;28;20100;-82
2022/11/22 12:02:09;;;;;;;5.78;1.50;;;;;;;9.26;67.55;96554.34;5005933;28;20335;-83
2022/11/22 12:04:45;;;;;;;8.70;1.98;;;;;;;9.35;67.33;96541.69;5005570;28;20078;-82
2022/11/22 12:07:38;;;;;;;6.95;1.88;;;;;;;9.19;62.89;96543.19;4994250;28;20398;-82
2022/11/22 12:11:11;;;;;;;4.50;1.35;;;;;;;8.98;62.97;96536.69;5003291;28;20038;-83